Time;durP1;ratioP1;P1;durP2;ratioP2;P2;SDS_P1;SDS_P2;PMS_P1;PMS_P2;Temp;Humidity;BMP_temperature;BMP_pressure;BME280_temperature;BME280_humidity;BME280_pressure;Samples;Min_cycle;Max_cycle;Signal;HPM_P1;HPM_P2
2023/04/24 00:01:43;;;;;;;2.03;1.25;;;12.00;82.60;;;;;;5008516;28;20544;-67
2023/04/24 00:04:10;;;;;;;1.52;1.00;;;12.00;82.60;;;;;;5007371;28;20107;-67
2023/04/24 00:06:37;;;;;;;1.90;1.33;;;12.00;82.60;;;;;;5008754;28;20030;-70
2023/04/24 00:09:03;;;;;;;2.28;1.20;;;12.00;82.50;;;;;;5006421;28;20042;-69
2023/04/24 00:11:29;;;;;;;1.58;1.02;;;12.00;82.60;;;;;;5006882;28;20041;-69
2023/04/24 00:13:56;;;;;;;1.27;1.00;;;12.00;82.50;;;;;;5004294;28;20488;-69
2023/04/24 00:16:22;;;;;;;1.65;1.25;;;12.10;82.40;;;;;;5008755;28;20030;-68
2023/04/24 00:18:48;;;;;;;2.22;1.58;;;12.10;82.40;;;;;;5007259;28;20480;-69
2023/04/24 00:21:17;;;;;;;1.20;0.98;;;12.10;82.40;;;;;;5008462;28;20037;-69
2023/04/24 00:23:44;;;;;;;2.10;1.67;;;12.10;82.40;;;;;;5006100;28;20471;-68
2023/04/24 00:26:10;;;;;;;2.72;1.30;;;12.20;82.30;;;;;;5008613;28;20029;-70
2023/04/24 00:28:35;;;;;;;2.00;1.02;;;12.10;82.30;;;;;;5007647;28;20030;-69
2023/04/24 00:31:01;;;;;;;3.20;1.42;;;12.10;82.40;;;;;;5005859;28;20084;-69
2023/04/24 00:33:27;;;;;;;1.85;1.27;;;12.10;82.40;;;;;;5008455;28;20030;-69
2023/04/24 00:35:53;;;;;;;1.15;0.95;;;12.10;82.60;;;;;;4990067;28;20107;-73
2023/04/24 00:38:19;;;;;;;0.88;0.75;;;12.00;82.80;;;;;;5002548;28;20041;-73
2023/04/24 00:40:44;;;;;;;1.08;0.77;;;11.90;82.90;;;;;;4999979;28;20561;-72
2023/04/24 00:43:11;;;;;;;0.60;0.50;;;11.90;83.00;;;;;;5005982;28;20355;-72
2023/04/24 00:45:37;;;;;;;0.60;0.60;;;11.90;83.00;;;;;;5008584;28;20461;-72
2023/04/24 00:48:04;;;;;;;1.27;0.70;;;11.90;83.10;;;;;;4990597;28;20029;-69
2023/04/24 00:50:30;;;;;;;0.93;0.50;;;11.90;83.00;;;;;;5008126;28;20112;-69
2023/04/24 00:52:56;;;;;;;0.75;0.47;;;11.90;83.00;;;;;;5007745;28;20049;-68
2023/04/24 00:55:21;;;;;;;0.73;0.70;;;11.90;83.10;;;;;;5003611;28;20483;-68
2023/04/24 00:57:50;;;;;;;0.50;0.50;;;11.90;83.30;;;;;;5002585;28;20026;-68
2023/04/24 01:00:16;;;;;;;0.57;0.45;;;11.90;83.30;;;;;;5006701;28;20053;-69
2023/04/24 01:02:45;;;;;;;0.75;0.75;;;11.90;83.40;;;;;;5003535;28;20405;-69
2023/04/24 01:05:12;;;;;;;0.57;0.50;;;11.90;83.30;;;;;;5006023;28;20030;-69
2023/04/24 01:07:40;;;;;;;1.00;0.95;;;11.90;83.50;;;;;;5006485;28;20867;-68
2023/04/24 01:10:08;;;;;;;1.20;1.00;;;11.90;83.70;;;;;;5008992;28;20362;-68
2023/04/24 01:12:33;;;;;;;1.88;1.17;;;11.90;83.70;;;;;;5005120;28;20038;-69
2023/04/24 01:14:59;;;;;;;1.42;1.17;;;11.90;83.70;;;;;;4999602;28;20073;-69
2023/04/24 01:17:25;;;;;;;1.80;1.08;;;11.90;83.80;;;;;;4995991;28;20392;-69
2023/04/24 01:19:53;;;;;;;2.70;1.20;;;11.90;83.80;;;;;;5005389;28;20122;-69
2023/04/24 01:22:20;;;;;;;3.42;2.40;;;12.00;83.60;;;;;;5005799;28;20026;-69
2023/04/24 01:24:46;;;;;;;2.08;1.77;;;12.00;83.70;;;;;;5007832;28;20069;-68
2023/04/24 01:27:12;;;;;;;4.25;2.83;;;12.00;83.60;;;;;;5004645;28;20034;-69
2023/04/24 01:29:38;;;;;;;4.93;3.15;;;12.00;84.40;;;;;;5002561;28;20030;-69
2023/04/24 01:32:04;;;;;;;5.10;2.83;;;11.90;83.70;;;;;;4990018;28;20061;-68
2023/04/24 01:34:31;;;;;;;5.40;3.58;;;11.90;83.70;;;;;;5006432;28;20022;-69
2023/04/24 01:36:56;;;;;;;5.38;3.42;;;11.90;83.70;;;;;;5006573;28;20077;-69
2023/04/24 01:39:25;;;;;;;6.53;3.92;;;11.90;83.70;;;;;;4973683;28;20473;-69
2023/04/24 01:41:52;;;;;;;7.20;4.20;;;11.90;83.70;;;;;;5006894;28;20029;-67
2023/04/24 01:44:18;;;;;;;7.35;3.88;;;11.90;83.80;;;;;;5008364;28;20030;-67
2023/04/24 01:46:44;;;;;;;5.93;3.10;;;11.90;83.90;;;;;;5000257;28;20446;-68
2023/04/24 01:49:10;;;;;;;5.90;3.10;;;12.00;83.90;;;;;;4993710;28;20026;-69
2023/04/24 01:51:36;;;;;;;4.82;3.03;;;12.00;83.80;;;;;;4985848;28;20061;-68
2023/04/24 01:54:02;;;;;;;3.40;2.38;;;12.00;83.40;;;;;;5010109;28;20381;-69
2023/04/24 01:56:30;;;;;;;3.70;1.75;;;12.00;83.50;;;;;;5007341;28;20390;-69
2023/04/24 01:58:57;;;;;;;2.97;1.77;;;12.00;83.70;;;;;;5010952;28;20033;-69
2023/04/24 02:01:24;;;;;;;3.83;1.58;;;11.90;84.00;;;;;;5011744;28;20116;-67
2023/04/24 02:03:50;;;;;;;1.80;1.33;;;11.80;84.40;;;;;;5011297;28;20358;-68
2023/04/24 02:06:16;;;;;;;1.73;1.13;;;11.80;84.50;;;;;;4994362;28;20478;-67
2023/04/24 02:08:41;;;;;;;2.47;1.70;;;11.80;84.40;;;;;;4991958;28;20049;-71
2023/04/24 02:11:09;;;;;;;1.60;1.50;;;11.80;84.50;;;;;;4990583;28;20041;-72
2023/04/24 02:13:35;;;;;;;2.33;1.73;;;11.80;84.50;;;;;;5008960;28;20478;-69
2023/04/24 02:16:01;;;;;;;4.63;1.88;;;11.90;84.50;;;;;;5009496;28;20036;-68
2023/04/24 02:18:27;;;;;;;3.72;2.30;;;11.90;84.80;;;;;;5010223;28;20033;-66
2023/04/24 02:20:53;;;;;;;4.75;3.42;;;12.00;84.10;;;;;;5010935;28;20412;-71
2023/04/24 02:23:19;;;;;;;2.80;1.85;;;11.90;84.10;;;;;;5011349;28;20034;-69
2023/04/24 02:25:45;;;;;;;3.05;2.30;;;11.90;84.10;;;;;;5010748;28;20104;-69
2023/04/24 02:28:11;;;;;;;3.90;2.35;;;12.00;84.20;;;;;;5010128;28;20108;-68
2023/04/24 02:30:37;;;;;;;5.80;3.53;;;12.00;84.30;;;;;;4992978;28;20530;-68
2023/04/24 02:33:03;;;;;;;5.20;3.47;;;11.90;84.40;;;;;;5007838;28;20034;-68
2023/04/24 02:35:29;;;;;;;6.40;3.97;;;11.90;84.60;;;;;;5011757;28;20030;-67
2023/04/24 02:37:55;;;;;;;17.80;5.20;;;11.90;84.70;;;;;;5006297;28;20030;-68
2023/04/24 02:40:20;;;;;;;10.88;4.05;;;11.80;84.70;;;;;;5010956;28;20076;-67
2023/04/24 02:42:46;;;;;;;8.18;4.43;;;11.80;84.80;;;;;;5009129;28;20046;-67
2023/04/24 02:45:12;;;;;;;7.78;4.45;;;11.80;84.80;;;;;;5010857;28;20034;-68
2023/04/24 02:47:38;;;;;;;8.43;4.88;;;11.80;84.80;;;;;;5009368;28;20544;-67
2023/04/24 02:50:04;;;;;;;8.25;4.78;;;11.80;84.90;;;;;;5004386;28;20029;-67
2023/04/24 02:52:30;;;;;;;7.47;5.10;;;11.80;85.00;;;;;;5003458;28;20038;-68
2023/04/24 02:54:55;;;;;;;9.50;4.95;;;11.80;85.00;;;;;;5010778;28;20022;-70
2023/04/24 02:57:21;;;;;;;9.23;4.93;;;11.80;85.00;;;;;;5002671;28;20026;-68
2023/04/24 02:59:47;;;;;;;7.53;4.43;;;11.80;85.00;;;;;;4990247;28;20034;-67
2023/04/24 03:02:12;;;;;;;7.53;4.30;;;11.80;84.90;;;;;;5009038;28;20145;-67
2023/04/24 03:04:39;;;;;;;8.35;5.15;;;11.80;85.00;;;;;;5009126;28;20366;-67
2023/04/24 03:07:05;;;;;;;8.65;4.53;;;11.70;85.10;;;;;;5003026;28;20033;-67
2023/04/24 03:09:31;;;;;;;9.10;4.65;;;11.70;85.40;;;;;;5010296;28;20563;-67
2023/04/24 03:11:58;;;;;;;5.32;4.30;;;11.70;85.40;;;;;;5009438;28;20041;-70
2023/04/24 03:14:23;;;;;;;6.47;4.05;;;11.70;85.60;;;;;;5009214;28;20081;-70
2023/04/24 03:16:50;;;;;;;7.07;4.38;;;11.60;85.60;;;;;;5007606;28;20057;-70
2023/04/24 03:19:18;;;;;;;7.10;4.38;;;11.60;85.80;;;;;;4991853;28;20564;-69
2023/04/24 03:21:44;;;;;;;6.55;4.43;;;11.60;85.90;;;;;;5005929;28;20041;-69
2023/04/24 03:24:10;;;;;;;6.65;4.10;;;11.60;85.90;;;;;;5008743;28;20034;-70
2023/04/24 03:26:35;;;;;;;7.65;3.78;;;11.70;85.90;;;;;;4991971;28;20030;-71
2023/04/24 03:29:01;;;;;;;7.50;4.90;;;11.70;85.70;;;;;;4989676;28;20026;-70
2023/04/24 03:31:27;;;;;;;6.57;4.75;;;11.70;85.50;;;;;;5009506;28;20034;-70
2023/04/24 03:33:52;;;;;;;6.57;3.47;;;11.70;85.50;;;;;;5010693;28;20030;-70
2023/04/24 03:36:19;;;;;;;5.55;4.00;;;11.70;85.50;;;;;;4991151;28;20035;-70
2023/04/24 03:38:45;;;;;;;4.82;3.17;;;11.70;85.60;;;;;;5007894;28;20366;-71
2023/04/24 03:41:11;;;;;;;7.22;3.72;;;11.70;85.70;;;;;;4986919;28;20636;-71
2023/04/24 03:43:37;;;;;;;6.63;4.10;;;11.70;85.70;;;;;;5007354;28;20121;-70
2023/04/24 03:46:03;;;;;;;5.35;3.58;;;11.70;85.80;;;;;;5008418;28;20037;-70
2023/04/24 03:48:29;;;;;;;6.55;4.65;;;11.60;85.70;;;;;;5007090;28;20033;-71
2023/04/24 03:50:55;;;;;;;8.15;4.00;;;11.60;85.70;;;;;;5008123;28;20033;-70
2023/04/24 03:53:21;;;;;;;9.65;5.15;;;11.60;85.70;;;;;;5003651;28;20022;-71
2023/04/24 03:55:47;;;;;;;12.40;5.47;;;11.50;85.70;;;;;;5006787;28;20022;-71
2023/04/24 03:58:15;;;;;;;9.77;6.50;;;11.50;85.70;;;;;;4989973;28;20492;-71
2023/04/24 04:00:41;;;;;;;9.13;5.75;;;11.50;85.70;;;;;;5006581;28;20049;-71
2023/04/24 04:03:07;;;;;;;9.43;5.70;;;11.50;85.80;;;;;;5010044;28;20014;-71
2023/04/24 04:05:33;;;;;;;10.60;7.40;;;11.50;85.80;;;;;;4992488;28;20029;-71
2023/04/24 04:07:58;;;;;;;14.55;7.07;;;11.50;85.70;;;;;;5009078;28;20109;-70
2023/04/24 04:10:24;;;;;;;8.93;5.57;;;11.40;85.70;;;;;;4990667;28;20038;-71
2023/04/24 04:12:50;;;;;;;10.00;7.22;;;11.50;85.80;;;;;;5009060;28;20026;-71
2023/04/24 04:15:15;;;;;;;11.38;6.90;;;11.50;85.70;;;;;;5010287;28;20156;-71
2023/04/24 04:17:41;;;;;;;9.82;6.65;;;11.40;85.60;;;;;;4992001;28;20030;-70
2023/04/24 04:20:10;;;;;;;11.05;7.53;;;11.50;85.60;;;;;;4974881;28;20037;-70
2023/04/24 04:22:36;;;;;;;13.65;6.72;;;11.50;86.10;;;;;;5008710;28;20034;-71
2023/04/24 04:25:03;;;;;;;11.48;5.97;;;11.50;85.40;;;;;;4989403;28;20030;-71
2023/04/24 04:27:31;;;;;;;11.38;6.85;;;11.40;85.30;;;;;;4990680;28;20452;-71
2023/04/24 04:30:01;;;;;;;11.73;7.28;;;11.40;85.20;;;;;;5007575;28;20025;-70
2023/04/24 04:32:26;;;;;;;11.52;6.88;;;11.40;85.30;;;;;;5007062;28;20029;-68
2023/04/24 04:34:53;;;;;;;9.63;5.47;;;11.40;85.20;;;;;;5007228;28;20033;-68
2023/04/24 04:37:19;;;;;;;13.82;5.53;;;11.40;85.20;;;;;;5004391;28;20083;-67
2023/04/24 04:39:44;;;;;;;7.07;4.53;;;11.40;85.20;;;;;;5007739;28;20025;-68
2023/04/24 04:42:10;;;;;;;7.10;4.45;;;11.40;85.10;;;;;;5004553;28;20030;-68
2023/04/24 04:44:36;;;;;;;8.18;5.95;;;11.40;85.10;;;;;;5006501;28;20104;-67
2023/04/24 04:47:05;;;;;;;9.68;5.95;;;11.40;85.00;;;;;;5008766;28;20034;-68
2023/04/24 04:49:34;;;;;;;8.60;5.15;;;11.40;85.00;;;;;;4987202;28;20034;-67
2023/04/24 04:52:00;;;;;;;10.65;5.95;;;11.40;84.90;;;;;;5007498;28;20114;-67
2023/04/24 04:54:25;;;;;;;9.45;5.28;;;11.40;84.80;;;;;;4970882;28;20030;-67
2023/04/24 04:56:51;;;;;;;7.38;4.72;;;11.40;84.80;;;;;;5007097;28;20025;-67
2023/04/24 04:59:17;;;;;;;9.43;5.25;;;11.40;84.80;;;;;;5006791;28;20030;-67
2023/04/24 05:01:42;;;;;;;8.25;5.30;;;11.40;84.70;;;;;;4989343;28;20656;-70
2023/04/24 05:04:08;;;;;;;9.60;5.13;;;11.40;84.70;;;;;;4988882;28;20489;-67
2023/04/24 05:06:34;;;;;;;7.63;5.22;;;11.30;84.70;;;;;;5008112;28;20058;-67
2023/04/24 05:08:59;;;;;;;6.68;4.43;;;11.30;84.90;;;;;;5006881;28;20033;-67
2023/04/24 05:11:25;;;;;;;6.82;4.47;;;11.30;84.90;;;;;;5006996;28;20122;-67
2023/04/24 05:13:51;;;;;;;6.65;4.28;;;11.40;84.90;;;;;;5005637;28;20030;-67
2023/04/24 05:16:16;;;;;;;9.13;5.03;;;11.50;84.70;;;;;;5008067;28;20084;-67
2023/04/24 05:18:42;;;;;;;7.93;5.00;;;11.40;84.50;;;;;;4986498;28;20147;-67
2023/04/24 05:21:08;;;;;;;6.75;4.47;;;11.40;84.60;;;;;;5010851;28;20033;-67
2023/04/24 05:23:33;;;;;;;6.65;3.67;;;11.30;84.70;;;;;;5009390;28;20073;-67
2023/04/24 05:25:59;;;;;;;6.13;4.55;;;11.40;84.90;;;;;;5011637;28;20033;-67
2023/04/24 05:28:28;;;;;;;6.40;4.10;;;11.30;84.80;;;;;;4988940;28;20038;-67
2023/04/24 05:30:55;;;;;;;7.82;4.53;;;11.30;85.00;;;;;;5009695;28;20504;-67
2023/04/24 05:33:22;;;;;;;5.13;3.75;;;11.30;85.10;;;;;;4993119;28;20365;-67
2023/04/24 05:35:48;;;;;;;5.93;4.18;;;11.30;85.00;;;;;;4991743;28;20076;-67
2023/04/24 05:38:14;;;;;;;6.25;4.10;;;11.30;85.10;;;;;;5010763;28;20034;-67
2023/04/24 05:40:40;;;;;;;5.72;3.72;;;11.30;85.20;;;;;;5009975;28;20036;-67
2023/04/24 05:43:05;;;;;;;6.78;4.70;;;11.30;85.10;;;;;;4989626;28;20623;-70
2023/04/24 05:45:31;;;;;;;5.50;4.03;;;11.30;85.10;;;;;;4992616;28;20029;-70
2023/04/24 05:47:57;;;;;;;5.45;3.67;;;11.30;85.10;;;;;;5007225;28;20088;-70
2023/04/24 05:50:23;;;;;;;6.05;4.22;;;11.30;85.20;;;;;;4979372;28;20165;-70
2023/04/24 05:52:48;;;;;;;5.07;3.42;;;11.30;85.20;;;;;;5006504;28;20022;-67
2023/04/24 05:55:17;;;;;;;4.88;3.35;;;11.40;85.20;;;;;;5008670;28;20030;-67
2023/04/24 05:57:42;;;;;;;5.07;3.45;;;11.40;84.90;;;;;;5007604;28;20520;-67
2023/04/24 06:00:11;;;;;;;4.15;2.85;;;11.50;84.80;;;;;;5003730;28;20117;-67
2023/04/24 06:02:38;;;;;;;4.20;2.80;;;11.50;84.60;;;;;;5000707;28;20030;-68
2023/04/24 06:05:04;;;;;;;4.60;2.47;;;11.60;84.50;;;;;;4998849;28;20075;-67
2023/04/24 06:07:30;;;;;;;5.63;3.50;;;11.60;84.60;;;;;;4989425;28;20058;-67
2023/04/24 06:09:56;;;;;;;5.03;3.00;;;11.70;84.50;;;;;;5004998;28;20084;-70
2023/04/24 06:12:22;;;;;;;4.78;2.42;;;11.70;84.20;;;;;;4992290;28;20049;-70
2023/04/24 06:14:48;;;;;;;4.07;2.92;;;11.60;84.30;;;;;;5010899;28;20022;-67
2023/04/24 06:17:14;;;;;;;3.45;2.40;;;11.60;84.40;;;;;;4985925;28;20045;-71
2023/04/24 06:19:40;;;;;;;3.40;2.90;;;11.60;84.40;;;;;;5011750;28;20030;-69
2023/04/24 06:22:06;;;;;;;5.15;2.80;;;11.60;84.40;;;;;;5010236;28;20400;-71
2023/04/24 06:24:32;;;;;;;2.85;1.90;;;11.60;84.40;;;;;;5011806;28;20034;-71
2023/04/24 06:26:59;;;;;;;5.03;2.60;;;11.70;84.40;;;;;;5009370;28;20033;-68
2023/04/24 06:29:25;;;;;;;6.38;2.83;;;11.70;84.30;;;;;;4994513;28;20034;-68
2023/04/24 06:31:51;;;;;;;4.75;2.30;;;11.70;84.30;;;;;;5009208;28;20061;-68
2023/04/24 06:34:16;;;;;;;4.57;2.25;;;11.70;84.20;;;;;;5010675;28;20071;-69
2023/04/24 06:36:42;;;;;;;4.07;2.95;;;11.70;84.10;;;;;;5009557;28;20034;-69
2023/04/24 06:39:08;;;;;;;2.92;2.05;;;11.70;84.30;;;;;;5010095;28;20025;-66
2023/04/24 06:41:33;;;;;;;3.38;2.72;;;11.70;84.30;;;;;;5009129;28;20033;-68
2023/04/24 06:43:59;;;;;;;4.03;2.33;;;11.70;84.30;;;;;;5006321;28;20031;-67
2023/04/24 06:46:25;;;;;;;3.30;2.47;;;11.70;84.40;;;;;;5008108;28;20085;-68
2023/04/24 06:48:55;;;;;;;4.18;2.10;;;11.70;84.30;;;;;;5008554;28;20433;-67
2023/04/24 06:51:22;;;;;;;3.05;1.70;;;11.80;84.20;;;;;;5006104;28;20519;-67
2023/04/24 06:53:49;;;;;;;2.35;1.60;;;11.70;84.10;;;;;;5006812;28;20057;-67
2023/04/24 06:56:15;;;;;;;3.00;1.70;;;11.70;84.10;;;;;;4991147;28;20030;-68
2023/04/24 06:58:41;;;;;;;1.17;1.00;;;11.70;84.10;;;;;;5003397;28;20056;-67
2023/04/24 07:01:07;;;;;;;2.35;1.55;;;11.70;84.20;;;;;;5009412;28;20033;-67
2023/04/24 07:03:32;;;;;;;2.35;1.60;;;11.70;84.10;;;;;;5006023;28;20030;-67
2023/04/24 07:05:58;;;;;;;2.22;1.30;;;11.80;84.10;;;;;;5003451;28;20030;-66
2023/04/24 07:08:25;;;;;;;1.38;1.10;;;11.80;84.00;;;;;;4989564;28;20144;-67
2023/04/24 07:10:51;;;;;;;1.65;0.88;;;11.90;84.00;;;;;;4999386;28;20034;-68
2023/04/24 07:13:17;;;;;;;1.05;0.77;;;11.90;83.80;;;;;;5002962;28;20073;-68
2023/04/24 07:15:43;;;;;;;1.13;0.82;;;11.90;83.80;;;;;;5002433;28;20615;-69
2023/04/24 07:18:09;;;;;;;1.30;0.90;;;11.90;83.80;;;;;;5002430;28;20030;-71
2023/04/24 07:20:34;;;;;;;1.65;0.70;;;11.90;83.70;;;;;;5002991;28;20026;-70
2023/04/24 07:23:00;;;;;;;1.17;0.77;;;11.80;83.80;;;;;;5009950;28;20065;-70
2023/04/24 07:25:26;;;;;;;0.75;0.75;;;11.90;84.00;;;;;;4997970;28;20034;-70
2023/04/24 07:27:53;;;;;;;0.73;0.60;;;11.80;84.00;;;;;;4985558;28;20038;-68
2023/04/24 07:30:18;;;;;;;0.77;0.77;;;11.80;84.00;;;;;;5001276;28;20036;-68
2023/04/24 07:32:44;;;;;;;0.65;0.63;;;11.70;84.00;;;;;;5006005;28;20042;-68
2023/04/24 07:35:10;;;;;;;1.30;0.70;;;11.70;84.10;;;;;;5003316;28;20042;-69
2023/04/24 07:37:36;;;;;;;0.52;0.50;;;11.60;84.30;;;;;;5007573;28;20793;-67
2023/04/24 07:40:02;;;;;;;0.65;0.47;;;11.50;84.40;;;;;;5009356;28;20669;-67
2023/04/24 07:42:30;;;;;;;1.13;0.65;;;11.60;84.60;;;;;;4998393;28;20096;-66
2023/04/24 07:44:56;;;;;;;0.75;0.57;;;11.50;84.70;;;;;;5000911;28;20496;-67
2023/04/24 07:47:22;;;;;;;1.05;0.80;;;11.50;84.90;;;;;;5003686;28;20041;-74
2023/04/24 07:49:47;;;;;;;1.02;0.80;;;11.50;85.00;;;;;;5006276;28;20037;-71
2023/04/24 07:52:13;;;;;;;2.78;1.05;;;11.50;85.00;;;;;;5010932;28;20022;-73
2023/04/24 07:54:38;;;;;;;2.22;0.70;;;11.40;85.00;;;;;;4991766;28;20030;-72
2023/04/24 07:57:06;;;;;;;1.25;1.10;;;11.40;85.00;;;;;;5005532;28;20124;-77
2023/04/24 07:59:32;;;;;;;1.70;1.17;;;11.50;84.90;;;;;;5006053;28;20048;-72
2023/04/24 08:01:57;;;;;;;2.15;1.13;;;11.40;84.80;;;;;;5003751;28;20030;-68
2023/04/24 08:04:23;;;;;;;3.17;1.75;;;11.40;84.90;;;;;;5002725;28;20037;-67
2023/04/24 08:06:49;;;;;;;2.35;1.45;;;11.30;84.90;;;;;;4984573;28;20518;-68
2023/04/24 08:09:14;;;;;;;2.72;2.17;;;11.20;84.70;;;;;;5002554;28;20050;-67
2023/04/24 08:11:40;;;;;;;2.58;2.20;;;11.10;84.70;;;;;;5001581;28;20057;-67
2023/04/24 08:14:06;;;;;;;5.10;2.47;;;11.10;85.30;;;;;;5002549;28;20389;-67
2023/04/24 08:16:33;;;;;;;6.68;2.60;;;11.10;84.70;;;;;;5000437;28;20492;-67
2023/04/24 08:18:58;;;;;;;5.07;2.50;;;11.10;84.50;;;;;;5003613;28;20014;-67
2023/04/24 08:21:26;;;;;;;4.32;2.10;;;11.00;84.50;;;;;;5002145;28;20508;-67
2023/04/24 08:23:52;;;;;;;4.38;1.98;;;11.00;84.60;;;;;;5005198;28;20393;-68
2023/04/24 08:26:18;;;;;;;2.75;2.10;;;11.00;84.60;;;;;;5002816;28;20026;-67
2023/04/24 08:28:44;;;;;;;3.13;2.38;;;11.00;84.50;;;;;;5004742;28;20048;-71
2023/04/24 08:31:10;;;;;;;3.58;2.33;;;11.00;84.50;;;;;;5002042;28;20038;-68
2023/04/24 08:33:35;;;;;;;2.47;1.35;;;11.00;84.60;;;;;;5005810;28;20502;-67
2023/04/24 08:36:05;;;;;;;4.38;2.45;;;11.00;84.70;;;;;;5002058;28;20030;-67
2023/04/24 08:38:31;;;;;;;2.58;2.15;;;11.00;84.50;;;;;;5005530;28;20112;-67
2023/04/24 08:40:59;;;;;;;2.92;2.05;;;11.00;84.60;;;;;;5003720;28;20564;-67
2023/04/24 08:43:26;;;;;;;7.15;2.53;;;11.10;84.70;;;;;;5003257;28;20124;-68
2023/04/24 08:45:52;;;;;;;3.25;1.90;;;11.00;84.70;;;;;;4990778;28;20611;-67
2023/04/24 08:48:18;;;;;;;4.15;2.00;;;11.00;84.70;;;;;;5002695;28;20496;-67
2023/04/24 08:50:44;;;;;;;4.07;2.40;;;11.00;84.70;;;;;;5007222;28;20022;-67
2023/04/24 08:53:10;;;;;;;6.15;2.65;;;11.00;84.70;;;;;;5004664;28;20715;-67
2023/04/24 08:55:38;;;;;;;4.00;2.50;;;11.00;84.70;;;;;;5005481;28;20406;-67
2023/04/24 08:58:04;;;;;;;3.40;2.20;;;11.00;84.80;;;;;;5005040;28;20033;-68
2023/04/24 09:00:30;;;;;;;2.65;2.00;;;11.00;85.00;;;;;;4988473;28;20034;-68
2023/04/24 09:02:57;;;;;;;2.80;1.90;;;11.00;85.00;;;;;;4989452;28;20049;-67
2023/04/24 09:05:25;;;;;;;4.03;2.00;;;11.10;84.90;;;;;;5010640;28;20033;-69
2023/04/24 09:07:56;;;;;;;5.38;1.90;;;11.10;84.70;;;;;;5011331;28;20113;-70
2023/04/24 09:10:23;;;;;;;2.63;1.73;;;11.10;84.80;;;;;;5005512;28;20437;-70
2023/04/24 09:12:51;;;;;;;2.75;1.83;;;11.10;84.60;;;;;;5010371;28;20056;-68
2023/04/24 09:15:17;;;;;;;3.78;1.98;;;11.10;84.40;;;;;;5005526;28;20397;-67
2023/04/24 09:17:44;;;;;;;1.80;1.50;;;11.10;84.50;;;;;;5002734;28;20104;-67
2023/04/24 09:20:10;;;;;;;2.17;1.20;;;11.00;84.10;;;;;;5006949;28;20022;-67
2023/04/24 09:22:36;;;;;;;5.78;1.70;;;10.90;84.00;;;;;;5006368;28;20038;-67
2023/04/24 09:25:08;;;;;;;3.72;1.58;;;10.90;84.00;;;;;;5002478;28;20030;-68
2023/04/24 09:27:34;;;;;;;3.10;1.40;;;10.90;83.90;;;;;;4988832;28;20038;-68
2023/04/24 09:30:01;;;;;;;4.65;2.00;;;10.90;83.90;;;;;;5005436;28;20044;-67
2023/04/24 09:32:29;;;;;;;1.95;1.30;;;10.90;83.90;;;;;;5003041;28;20042;-67
2023/04/24 09:35:10;;;;;;;2.60;1.20;;;10.90;84.00;;;;;;5007839;28;20469;-67
2023/04/24 09:37:38;;;;;;;2.78;1.25;;;11.00;83.90;;;;;;5006602;28;20030;-68
2023/04/24 09:40:12;;;;;;;3.13;1.38;;;11.00;83.80;;;;;;5006028;28;20033;-68
2023/04/24 09:42:39;;;;;;;2.05;1.50;;;11.10;83.60;;;;;;5000012;28;20046;-68
2023/04/24 09:45:11;;;;;;;3.67;1.60;;;11.10;83.40;;;;;;4988916;28;20030;-68
2023/04/24 09:47:40;;;;;;;;;;;11.10;83.30;;;;;;5003563;28;20389;-67
2023/04/24 09:50:16;;;;;;;3.35;1.27;;;11.20;83.20;;;;;;5005289;28;19963;-68
2023/04/24 09:52:54;;;;;;;2.47;1.25;;;11.20;83.00;;;;;;5004994;28;20044;-68
2023/04/24 09:55:21;;;;;;;1.65;1.27;;;11.30;82.60;;;;;;5003818;28;20018;-72
2023/04/24 09:58:00;;;;;;;2.63;1.50;;;11.40;81.60;;;;;;5004564;28;20033;-72
2023/04/24 10:00:29;;;;;;;8.88;1.88;;;11.40;81.40;;;;;;4987095;28;20034;-71
2023/04/24 10:03:05;;;;;;;3.83;1.35;;;11.50;81.10;;;;;;5007638;28;20113;-72
2023/04/24 10:05:36;;;;;;;4.63;1.15;;;11.50;79.90;;;;;;4985631;28;20431;-71
2023/04/24 10:08:10;;;;;;;1.88;1.17;;;11.50;80.10;;;;;;4994050;28;20107;-70
2023/04/24 10:10:42;;;;;;;2.20;1.00;;;11.70;80.20;;;;;;4995511;28;20041;-71
2023/04/24 10:13:10;;;;;;;7.53;1.65;;;11.70;80.00;;;;;;5009931;28;20029;-68
2023/04/24 10:15:36;;;;;;;0.88;0.60;;;11.80;79.90;;;;;;5002113;28;20030;-68
2023/04/24 10:18:03;;;;;;;2.35;1.63;;;11.90;79.70;;;;;;5008943;28;20076;-70
2023/04/24 10:20:30;;;;;;;2.72;1.15;;;12.00;78.80;;;;;;5008093;28;20116;-71
2023/04/24 10:22:57;;;;;;;4.72;1.63;;;12.00;77.80;;;;;;4987843;28;20057;-71
2023/04/24 10:25:25;;;;;;;4.40;1.13;;;12.10;77.20;;;;;;5004040;28;20049;-71
2023/04/24 10:27:52;;;;;;;1.45;0.70;;;12.20;77.10;;;;;;5000800;28;20057;-72
2023/04/24 10:30:21;;;;;;;4.35;1.45;;;12.50;75.70;;;;;;5009904;28;20029;-68
2023/04/24 10:32:47;;;;;;;1.13;0.90;;;12.60;75.60;;;;;;4970393;28;20382;-68
2023/04/24 10:35:14;;;;;;;1.70;1.30;;;12.70;75.40;;;;;;5008627;28;20036;-69
2023/04/24 10:37:46;;;;;;;4.10;1.13;;;12.90;75.00;;;;;;5004502;28;20029;-68
2023/04/24 10:40:17;;;;;;;1.15;0.85;;;13.00;75.00;;;;;;5004673;28;20485;-68
2023/04/24 10:42:46;;;;;;;1.98;0.95;;;12.90;74.50;;;;;;4992101;28;20026;-68
2023/04/24 10:45:23;;;;;;;11.77;0.90;;;12.70;74.40;;;;;;5008464;28;20088;-69
2023/04/24 10:48:10;;;;;;;7.45;1.25;;;12.60;74.90;;;;;;4983820;28;20436;-68
2023/04/24 10:50:52;;;;;;;2.08;1.02;;;12.50;74.50;;;;;;5006338;28;20118;-69
2023/04/24 10:53:26;;;;;;;2.47;0.90;;;12.40;74.40;;;;;;5004642;28;20034;-69
2023/04/24 10:56:13;;;;;;;2.20;0.80;;;12.30;74.60;;;;;;5010250;28;20025;-69
2023/04/24 10:58:44;;;;;;;3.63;1.33;;;12.30;74.90;;;;;;5007546;28;20026;-69
2023/04/24 11:01:23;;;;;;;1.27;0.93;;;12.30;74.40;;;;;;5005994;28;20440;-69
2023/04/24 11:04:00;;;;;;;1.80;1.27;;;12.20;73.90;;;;;;5003837;28;20030;-69
2023/04/24 11:06:35;;;;;;;3.28;1.25;;;12.20;74.40;;;;;;5004112;28;20041;-69
2023/04/24 11:09:07;;;;;;;5.97;1.00;;;12.30;74.30;;;;;;5007001;28;20134;-69
2023/04/24 11:11:34;;;;;;;1.23;1.13;;;12.40;72.40;;;;;;5004982;28;20036;-69
2023/04/24 11:14:01;;;;;;;3.70;1.20;;;12.40;71.80;;;;;;5004722;28;20030;-70
2023/04/24 11:16:44;;;;;;;0.55;0.55;;;12.30;72.00;;;;;;5006958;28;20037;-70
2023/04/24 11:19:19;;;;;;;1.10;0.90;;;12.20;72.50;;;;;;4989180;28;20034;-68
2023/04/24 11:22:01;;;;;;;2.17;0.90;;;12.10;73.00;;;;;;5008519;28;20044;-69
2023/04/24 11:24:37;;;;;;;0.50;0.50;;;12.10;73.30;;;;;;5010990;28;20126;-68
2023/04/24 11:27:06;;;;;;;0.47;0.47;;;12.10;73.60;;;;;;5010176;28;20029;-69
2023/04/24 11:29:38;;;;;;;1.95;0.60;;;12.20;73.60;;;;;;5006397;28;20468;-69
2023/04/24 11:32:18;;;;;;;;;;;12.40;73.60;;;;;;5006436;28;20032;-69
2023/04/24 11:34:48;;;;;;;1.85;0.40;;;12.60;72.60;;;;;;5007642;28;19957;-68
2023/04/24 11:37:15;;;;;;;1.17;0.65;;;12.70;71.10;;;;;;5009865;28;20508;-69
2023/04/24 11:39:40;;;;;;;0.32;0.30;;;12.60;71.50;;;;;;5008593;28;20029;-69
2023/04/24 11:42:08;;;;;;;0.88;0.38;;;12.60;71.00;;;;;;4990517;28;20038;-69
2023/04/24 11:44:37;;;;;;;1.02;0.47;;;12.60;71.10;;;;;;5005181;28;20172;-68
2023/04/24 11:47:04;;;;;;;0.30;0.30;;;12.60;70.70;;;;;;5005631;28;20036;-69
2023/04/24 11:49:30;;;;;;;1.05;0.65;;;12.60;70.80;;;;;;5003394;28;20025;-72
2023/04/24 11:51:56;;;;;;;0.45;0.38;;;12.60;70.20;;;;;;4992728;28;20519;-72
2023/04/24 11:54:22;;;;;;;0.60;0.40;;;12.70;70.30;;;;;;5008438;28;20040;-72
2023/04/24 11:56:49;;;;;;;0.40;0.38;;;12.70;70.00;;;;;;4988696;28;20034;-72
2023/04/24 11:59:15;;;;;;;0.85;0.30;;;12.60;70.10;;;;;;5006425;28;20038;-72
2023/04/24 12:01:45;;;;;;;2.00;0.47;;;12.50;69.40;;;;;;5009990;28;20041;-69
2023/04/24 12:04:11;;;;;;;0.38;0.35;;;12.40;69.80;;;;;;5009469;28;20129;-69
2023/04/24 12:06:36;;;;;;;0.35;0.35;;;12.30;69.80;;;;;;5007023;28;20176;-69
2023/04/24 12:09:02;;;;;;;6.45;0.70;;;12.10;69.60;;;;;;5006771;28;20050;-72
2023/04/24 12:11:28;;;;;;;0.65;0.63;;;12.00;70.50;;;;;;5001817;28;20132;-73
2023/04/24 12:13:54;;;;;;;0.65;0.43;;;11.90;71.20;;;;;;5012185;28;20026;-72
2023/04/24 12:16:19;;;;;;;0.28;0.28;;;11.80;71.90;;;;;;5012473;28;20030;-72
2023/04/24 12:18:45;;;;;;;0.63;0.52;;;11.60;72.60;;;;;;5008495;28;20088;-69
2023/04/24 12:21:15;;;;;;;0.57;0.47;;;11.50;74.10;;;;;;5002769;28;20097;-69
2023/04/24 12:23:46;;;;;;;1.30;0.60;;;11.60;74.70;;;;;;5003515;28;20038;-67
2023/04/24 12:26:16;;;;;;;0.40;0.22;;;11.70;74.30;;;;;;5010532;28;20361;-69
2023/04/24 12:28:42;;;;;;;0.63;0.52;;;12.00;74.10;;;;;;5005820;28;20037;-69
2023/04/24 12:31:08;;;;;;;1.10;0.35;;;12.20;73.80;;;;;;4991215;28;20038;-69
2023/04/24 12:33:35;;;;;;;0.47;0.47;;;12.50;73.80;;;;;;4987197;28;20065;-67
2023/04/24 12:36:01;;;;;;;0.40;0.40;;;12.80;73.40;;;;;;5007670;28;20026;-68
2023/04/24 12:38:39;;;;;;;1.65;0.65;;;13.00;72.30;;;;;;5004117;28;20109;-67
2023/04/24 12:41:13;;;;;;;7.97;0.50;;;13.20;71.90;;;;;;5004476;28;20500;-70
2023/04/24 12:43:50;;;;;;;0.47;0.45;;;13.40;70.70;;;;;;5008777;28;20049;-71
2023/04/24 12:46:15;;;;;;;0.95;0.60;;;13.60;69.80;;;;;;5004999;28;20045;-71
2023/04/24 12:48:41;;;;;;;0.60;0.60;;;13.60;68.00;;;;;;4999383;28;20381;-71